Pagrindinis puslapis
METAR-TAF:

METAR-TAF

Oro uostai :

Røst, Norvegija

platuma: 67-31N, ilguma: 012-06E, Aukštis: 4 m

Dabartinis oras

Ataskaita buvo paskelbta 35 minutes, ne 22:50 UTC
Vėjas 11 kt iš Pietvakarių
Temperatūra 12°C
Drėgmė 100%
Slėgis 1009 hPa
Matomumas: 6000 m
lietus

METAR: ENRS 022250Z AUTO 23011KT 6000 -SHRA VV006 12/12 Q1009

Laikas: 01:25 (23:25 UTC)


TAF: trūkstamas

Orai ataskaitas ir orų prognozės (METAR, TAF).

turimą stotys yra geltonos ir raudonos taškus žemėlapyje.

Perkelti pele per norėdami pamatyti stoties vardą.

Tada spustelėkite, norėdami matyti oro stebėjimo ir prognozės.

Norėdami pakeisti žemėlapį: spustelėkite ant žalios mygtukų su juodo kryžiaus žemyn,; žalią mygtuką su brūkšneliu, jei norite nutolinti; arba žalių rodyklių gretimoms žemėlapius.


METAR-TAF: